createdAt,value
2022-10-12T00:02:12.406Z,51.40
2022-10-12T00:05:20.310Z,51.40
2022-10-12T00:08:28.227Z,51.40
2022-10-12T00:11:37.627Z,51.40
2022-10-12T00:14:45.634Z,51.40
2022-10-12T00:17:54.237Z,51.40
2022-10-12T00:21:03.219Z,51.30
2022-10-12T00:24:11.303Z,51.30
2022-10-12T00:27:20.498Z,51.30
2022-10-12T00:30:28.526Z,51.30
2022-10-12T00:33:37.635Z,51.30
2022-10-12T00:36:45.727Z,51.20
2022-10-12T00:39:53.766Z,51.20
2022-10-12T00:43:03.081Z,51.20
2022-10-12T00:46:14.010Z,51.20
2022-10-12T00:49:23.182Z,51.20
2022-10-12T00:52:33.676Z,51.20
2022-10-12T00:55:46.156Z,51.20
2022-10-12T00:58:55.812Z,51.20
2022-10-12T01:02:03.658Z,51.20
2022-10-12T01:05:11.671Z,51.10
2022-10-12T01:08:19.545Z,51.10
2022-10-12T01:11:27.494Z,51.10
2022-10-12T01:14:36.960Z,51.10
2022-10-12T01:17:50.945Z,51.10
2022-10-12T01:21:06.283Z,51.10
2022-10-12T01:24:50.126Z,51.10
2022-10-12T01:27:59.807Z,51.10
2022-10-12T01:31:10.966Z,51.10
2022-10-12T01:34:21.458Z,51.70
2022-10-12T01:37:32.556Z,51.20
2022-10-12T01:40:42.894Z,51.20
2022-10-12T01:43:51.931Z,51.20
2022-10-12T01:47:01.861Z,51.20
2022-10-12T01:50:12.093Z,51.20
2022-10-12T01:53:26.149Z,51.20
2022-10-12T01:56:38.062Z,51.80
2022-10-12T01:59:50.894Z,51.20
2022-10-12T02:03:01.169Z,51.30
2022-10-12T02:06:11.249Z,51.30
2022-10-12T02:09:21.484Z,51.30
2022-10-12T02:12:29.353Z,51.30
2022-10-12T02:15:37.492Z,51.30
2022-10-12T02:18:48.411Z,51.30
2022-10-12T02:21:58.013Z,51.40
2022-10-12T02:25:07.521Z,51.90
2022-10-12T02:28:16.578Z,51.30
2022-10-12T02:31:29.377Z,51.30
2022-10-12T02:34:40.383Z,51.30
2022-10-12T02:37:50.026Z,51.40
2022-10-12T02:40:59.495Z,51.30
2022-10-12T02:44:09.493Z,51.40
2022-10-12T02:47:17.768Z,51.50
2022-10-12T02:50:27.209Z,51.40
2022-10-12T02:53:35.392Z,52.00
2022-10-12T02:56:44.885Z,51.40
2022-10-12T02:59:52.810Z,51.50
2022-10-12T03:03:00.942Z,51.40
2022-10-12T03:06:10.561Z,51.40
2022-10-12T03:09:18.748Z,51.30
2022-10-12T03:12:26.778Z,51.90
2022-10-12T03:15:34.461Z,51.30
2022-10-12T03:18:42.383Z,51.30
2022-10-12T03:21:51.696Z,51.30
2022-10-12T03:25:00.193Z,51.30
2022-10-12T03:28:08.367Z,51.30
2022-10-12T03:31:16.607Z,51.20
2022-10-12T03:34:24.386Z,51.30
2022-10-12T03:37:33.478Z,51.30
2022-10-12T03:40:41.708Z,51.30
2022-10-12T03:43:49.917Z,51.20
2022-10-12T03:46:57.727Z,51.20
2022-10-12T03:50:06.456Z,51.20
2022-10-12T03:53:15.512Z,51.10
2022-10-12T03:56:23.646Z,51.10
2022-10-12T03:59:31.541Z,51.10
2022-10-12T04:02:39.712Z,51.10
2022-10-12T04:05:53.818Z,51.10
2022-10-12T04:09:03.224Z,51.10
2022-10-12T04:12:11.408Z,51.10
2022-10-12T04:15:20.144Z,51.10
2022-10-12T04:18:27.999Z,51.10
2022-10-12T04:21:36.352Z,51.10
2022-10-12T04:24:45.787Z,51.10
2022-10-12T04:27:53.537Z,51.10
2022-10-12T04:31:01.326Z,51.10
2022-10-12T04:34:10.177Z,51.00
2022-10-12T04:37:18.290Z,51.60
2022-10-12T04:40:27.621Z,51.00
2022-10-12T04:43:35.385Z,51.00
2022-10-12T04:46:43.282Z,51.00
2022-10-12T04:49:51.369Z,51.00
2022-10-12T04:52:59.263Z,51.40
2022-10-12T04:56:09.460Z,51.00
2022-10-12T04:59:17.469Z,51.00
2022-10-12T05:02:25.549Z,51.00
2022-10-12T05:05:34.456Z,51.00
2022-10-12T05:08:42.591Z,51.00
2022-10-12T05:11:52.086Z,51.00
2022-10-12T05:15:00.128Z,51.00
2022-10-12T05:18:07.845Z,51.00
2022-10-12T05:21:15.903Z,51.00
2022-10-12T05:24:24.065Z,51.20
2022-10-12T05:27:33.457Z,51.00
2022-10-12T05:30:41.518Z,51.10
2022-10-12T05:33:49.566Z,51.00
2022-10-12T05:36:58.228Z,51.50
2022-10-12T05:40:07.378Z,50.90
2022-10-12T05:43:16.521Z,50.90
2022-10-12T05:46:24.714Z,50.90
2022-10-12T05:49:32.761Z,50.90
2022-10-12T05:52:41.290Z,51.00
2022-10-12T05:55:55.774Z,51.20
2022-10-12T05:59:05.168Z,50.90
2022-10-12T06:02:14.010Z,51.00
2022-10-12T06:05:22.048Z,51.00
2022-10-12T06:08:30.385Z,51.00
2022-10-12T06:11:38.324Z,51.00
2022-10-12T06:14:47.767Z,51.00
2022-10-12T06:17:56.238Z,50.90
2022-10-12T06:21:28.318Z,50.90
2022-10-12T06:24:31.980Z,50.90
2022-10-12T06:27:40.224Z,50.90
2022-10-12T06:30:54.220Z,50.90
2022-10-12T06:34:02.081Z,50.90
2022-10-12T06:37:20.369Z,50.90
2022-10-12T06:40:38.089Z,50.90
2022-10-12T06:43:46.168Z,50.80
2022-10-12T06:46:55.658Z,50.90
2022-10-12T06:50:03.666Z,50.90
2022-10-12T06:53:11.815Z,50.90
2022-10-12T06:56:19.937Z,50.90
2022-10-12T06:59:28.072Z,50.80
2022-10-12T07:02:37.908Z,50.70
2022-10-12T07:05:46.269Z,50.60
2022-10-12T07:08:55.112Z,50.60
2022-10-12T07:12:02.903Z,50.60
2022-10-12T07:15:11.446Z,50.60
2022-10-12T07:18:20.591Z,50.70
2022-10-12T07:21:28.735Z,50.60
2022-10-12T07:24:36.777Z,50.50
2022-10-12T07:27:44.564Z,50.50
2022-10-12T07:30:52.574Z,50.50
2022-10-12T07:34:01.986Z,50.50
2022-10-12T07:37:10.076Z,50.50
2022-10-12T07:40:18.229Z,50.50
2022-10-12T07:43:26.161Z,50.50
2022-10-12T07:46:34.098Z,50.50
2022-10-12T07:49:43.549Z,50.50
2022-10-12T07:52:51.696Z,50.50
2022-10-12T07:56:01.589Z,50.50
2022-10-12T07:59:09.516Z,50.50
2022-10-12T08:02:17.475Z,50.50
2022-10-12T08:05:27.580Z,50.50
2022-10-12T08:08:35.659Z,50.50
2022-10-12T08:11:43.952Z,50.40
2022-10-12T08:14:51.849Z,50.50
2022-10-12T08:17:59.871Z,50.50
2022-10-12T08:21:10.322Z,50.50
2022-10-12T08:24:18.078Z,50.50
2022-10-12T08:27:26.031Z,50.50
2022-10-12T08:30:34.312Z,50.50
2022-10-12T08:33:42.344Z,50.50
2022-10-12T08:36:52.194Z,50.50
2022-10-12T08:40:03.290Z,50.50
2022-10-12T08:43:15.305Z,50.40
2022-10-12T08:46:23.463Z,50.40
2022-10-12T08:49:31.655Z,50.50
2022-10-12T08:52:43.596Z,50.40
2022-10-12T08:55:52.677Z,50.50
2022-10-12T08:59:00.457Z,51.10
2022-10-12T09:02:15.044Z,50.50
2022-10-12T09:05:25.186Z,50.50
2022-10-12T09:08:39.496Z,50.50
2022-10-12T09:11:54.002Z,50.50
2022-10-12T09:15:04.356Z,50.50
2022-10-12T09:18:16.620Z,50.60
2022-10-12T09:21:25.017Z,50.60
2022-10-12T09:24:36.686Z,50.60
2022-10-12T09:27:46.187Z,50.60
2022-10-12T09:31:02.857Z,50.60
2022-10-12T09:34:12.747Z,50.70
2022-10-12T09:37:26.511Z,50.60
2022-10-12T09:40:35.971Z,50.70
2022-10-12T09:43:43.920Z,50.70
2022-10-12T09:46:54.451Z,50.70
2022-10-12T09:50:03.147Z,50.80
2022-10-12T09:53:16.186Z,50.80
2022-10-12T09:56:29.642Z,50.80
2022-10-12T09:59:38.511Z,51.40
2022-10-12T10:02:48.584Z,50.90
2022-10-12T10:06:03.629Z,50.80
2022-10-12T10:09:29.298Z,50.90
2022-10-12T10:12:39.552Z,51.50
2022-10-12T10:15:49.045Z,50.90
2022-10-12T10:18:57.698Z,50.90
2022-10-12T10:22:06.461Z,50.90
2022-10-12T10:25:20.345Z,50.90
2022-10-12T10:28:31.459Z,50.90
2022-10-12T10:31:39.598Z,50.90
2022-10-12T10:34:47.300Z,50.90
2022-10-12T10:37:56.177Z,50.90
2022-10-12T10:41:06.113Z,51.00
2022-10-12T10:44:29.117Z,51.00
2022-10-12T10:47:43.617Z,51.00
2022-10-12T10:50:52.748Z,51.00
2022-10-12T10:54:14.094Z,51.00
2022-10-12T10:57:23.097Z,51.00
2022-10-12T11:00:39.171Z,51.00
2022-10-12T11:03:52.499Z,51.00
2022-10-12T11:07:02.315Z,51.00
2022-10-12T11:10:22.402Z,51.00
2022-10-12T11:13:32.995Z,51.00
2022-10-12T11:16:45.236Z,51.00
2022-10-12T11:19:54.240Z,51.00
2022-10-12T11:23:04.465Z,51.00
2022-10-12T11:26:19.698Z,50.90
2022-10-12T11:29:27.708Z,50.80
2022-10-12T11:32:38.529Z,50.80
2022-10-12T11:35:47.011Z,50.80
2022-10-12T11:38:56.639Z,50.70
2022-10-12T11:42:22.748Z,50.70
2022-10-12T11:45:31.814Z,50.70
2022-10-12T11:48:44.569Z,50.70
2022-10-12T11:51:52.679Z,50.70
2022-10-12T11:55:03.942Z,50.60
2022-10-12T11:58:14.037Z,50.60
2022-10-12T12:01:50.988Z,50.60
2022-10-12T12:05:00.119Z,50.60
2022-10-12T12:08:07.980Z,50.60
2022-10-12T12:11:20.297Z,50.50
2022-10-12T12:15:08.860Z,50.60
2022-10-12T12:18:17.463Z,50.50
2022-10-12T12:21:26.611Z,50.50
2022-10-12T12:24:34.751Z,50.50
2022-10-12T12:27:43.786Z,50.50
2022-10-12T12:30:57.559Z,50.50
2022-10-12T12:34:06.809Z,50.50
2022-10-12T12:37:19.968Z,50.50
2022-10-12T12:40:28.075Z,50.50
2022-10-12T12:44:01.632Z,50.50
2022-10-12T12:50:49.402Z,50.40
2022-10-12T12:54:00.803Z,50.50
2022-10-12T12:57:27.649Z,50.50
2022-10-12T13:00:39.000Z,50.50
2022-10-12T13:04:15.189Z,50.50
2022-10-12T13:07:49.947Z,50.50
2022-10-12T13:11:06.772Z,50.50
2022-10-12T13:14:31.777Z,50.40
2022-10-12T13:18:18.664Z,50.50
2022-10-12T13:21:38.593Z,50.50
2022-10-12T13:24:47.793Z,50.50
2022-10-12T13:27:57.221Z,50.50
2022-10-12T13:31:07.313Z,50.60
2022-10-12T13:34:17.746Z,50.60
2022-10-12T13:37:31.016Z,50.50
2022-10-12T13:40:40.004Z,50.70
2022-10-12T13:43:52.934Z,50.60
2022-10-12T13:47:01.839Z,50.60
2022-10-12T13:50:18.444Z,50.70
2022-10-12T13:53:26.763Z,50.60
2022-10-12T13:56:34.629Z,50.60
2022-10-12T13:59:44.251Z,50.60
2022-10-12T14:02:56.018Z,50.50
2022-10-12T14:06:04.590Z,50.50
2022-10-12T14:09:19.144Z,50.50
2022-10-12T14:12:29.685Z,51.10
2022-10-12T14:15:40.391Z,50.60
2022-10-12T14:18:48.974Z,50.60
2022-10-12T14:21:56.839Z,50.50
2022-10-12T14:25:10.926Z,50.50
2022-10-12T14:28:22.848Z,50.50
2022-10-12T14:31:53.180Z,50.60
2022-10-12T14:35:20.729Z,50.50
2022-10-12T14:38:38.801Z,50.50
2022-10-12T14:41:51.259Z,50.60
2022-10-12T14:44:59.341Z,50.60
2022-10-12T14:48:12.887Z,50.70
2022-10-12T14:51:20.995Z,50.60
2022-10-12T14:54:28.920Z,50.60
2022-10-12T14:57:36.934Z,50.50
2022-10-12T15:00:44.947Z,50.60
2022-10-12T15:03:54.217Z,50.70
2022-10-12T15:07:02.295Z,50.70
2022-10-12T15:10:10.835Z,50.70
2022-10-12T15:13:18.798Z,50.60
2022-10-12T15:16:27.917Z,50.60
2022-10-12T15:19:37.169Z,50.60
2022-10-12T15:22:45.820Z,50.70
2022-10-12T15:25:54.227Z,50.80
2022-10-12T15:29:02.448Z,50.80
2022-10-12T15:32:11.409Z,51.00
2022-10-12T15:35:22.393Z,51.60
2022-10-12T15:38:30.354Z,51.80
2022-10-12T15:41:38.536Z,51.40
2022-10-12T15:44:46.299Z,51.50
2022-10-12T15:47:54.531Z,51.40
2022-10-12T15:51:03.810Z,51.50
2022-10-12T15:54:11.769Z,51.50
2022-10-12T15:57:19.691Z,51.60
2022-10-12T16:00:28.732Z,51.50
2022-10-12T16:03:36.843Z,51.50
2022-10-12T16:06:46.483Z,51.60
2022-10-12T16:09:54.518Z,51.50
2022-10-12T16:13:02.649Z,51.60
2022-10-12T16:16:10.713Z,51.70
2022-10-12T16:19:18.826Z,51.40
2022-10-12T16:22:28.329Z,51.10
2022-10-12T16:25:36.510Z,51.00
2022-10-12T16:28:44.594Z,51.30
2022-10-12T16:31:52.298Z,51.30
2022-10-12T16:35:00.310Z,51.30
2022-10-12T16:38:10.046Z,51.20
2022-10-12T16:41:18.624Z,51.20
2022-10-12T16:44:26.842Z,51.10
2022-10-12T16:47:38.883Z,51.10
2022-10-12T16:50:50.813Z,51.00
2022-10-12T16:54:00.795Z,51.00
2022-10-12T16:57:08.688Z,51.00
2022-10-12T17:00:19.169Z,51.00
2022-10-12T17:03:27.395Z,50.90
2022-10-12T17:06:35.219Z,50.90
2022-10-12T17:09:44.843Z,50.90
2022-10-12T17:12:52.864Z,50.90
2022-10-12T17:16:13.711Z,50.80
2022-10-12T17:19:22.162Z,50.80
2022-10-12T17:22:30.213Z,50.80
2022-10-12T17:25:39.470Z,50.70
2022-10-12T17:28:47.409Z,50.70
2022-10-12T17:31:55.400Z,50.70
2022-10-12T17:35:03.994Z,50.70
2022-10-12T17:38:11.942Z,50.70
2022-10-12T17:41:21.277Z,50.70
2022-10-12T17:44:29.595Z,51.40
2022-10-12T17:47:39.117Z,51.20
2022-10-12T17:50:46.961Z,51.20
2022-10-12T17:53:54.943Z,51.20
2022-10-12T17:57:04.601Z,52.00
2022-10-12T18:00:14.187Z,52.20
2022-10-12T18:03:25.802Z,51.40
2022-10-12T18:06:34.603Z,51.40
2022-10-12T18:09:42.439Z,51.50
2022-10-12T18:12:52.946Z,51.60
2022-10-12T18:16:00.721Z,51.70
2022-10-12T18:19:09.671Z,51.70
2022-10-12T18:22:17.647Z,52.30
2022-10-12T18:25:25.912Z,52.20
2022-10-12T18:28:35.350Z,52.40
2022-10-12T18:31:44.229Z,52.50
2022-10-12T18:34:53.581Z,53.40
2022-10-12T18:38:01.487Z,52.50
2022-10-12T18:41:12.381Z,52.60
2022-10-12T18:44:22.121Z,52.70
2022-10-12T18:47:30.121Z,52.70
2022-10-12T18:50:38.081Z,52.70
2022-10-12T18:53:45.929Z,52.90
2022-10-12T18:56:54.121Z,52.70
2022-10-12T19:00:03.861Z,52.50
2022-10-12T19:03:12.892Z,52.60
2022-10-12T19:06:21.772Z,52.60
2022-10-12T19:09:29.546Z,52.70
2022-10-12T19:12:40.113Z,52.70
2022-10-12T19:15:51.642Z,52.70
2022-10-12T19:19:00.701Z,52.70
2022-10-12T19:22:08.754Z,52.90
2022-10-12T19:25:16.809Z,52.90
2022-10-12T19:28:24.820Z,52.80
2022-10-12T19:31:35.430Z,52.80
2022-10-12T19:34:43.398Z,52.70
2022-10-12T19:37:51.277Z,52.70
2022-10-12T19:40:59.406Z,52.70
2022-10-12T19:44:07.706Z,52.80
2022-10-12T19:47:17.031Z,52.70
2022-10-12T19:50:25.188Z,52.60
2022-10-12T19:53:33.094Z,52.60
2022-10-12T19:56:41.272Z,52.50
2022-10-12T19:59:49.208Z,52.70
2022-10-12T20:02:58.818Z,52.70
2022-10-12T20:06:09.232Z,52.60
2022-10-12T20:09:17.538Z,52.70
2022-10-12T20:12:26.494Z,52.70
2022-10-12T20:15:34.389Z,52.70
2022-10-12T20:18:43.798Z,52.70
2022-10-12T20:21:51.541Z,52.70
2022-10-12T20:24:59.334Z,52.60
2022-10-12T20:28:07.071Z,52.70
2022-10-12T20:31:14.787Z,52.60
2022-10-12T20:34:24.086Z,52.60
2022-10-12T20:37:32.658Z,52.60
2022-10-12T20:40:40.664Z,52.50
2022-10-12T20:43:49.373Z,52.50
2022-10-12T20:46:57.291Z,52.40
2022-10-12T20:50:07.494Z,52.50
2022-10-12T20:53:15.306Z,52.40
2022-10-12T20:56:23.217Z,52.40
2022-10-12T20:59:31.530Z,52.40
2022-10-12T21:02:39.654Z,52.30
2022-10-12T21:05:48.768Z,52.20
2022-10-12T21:08:57.992Z,52.20
2022-10-12T21:12:06.406Z,52.80
2022-10-12T21:15:14.378Z,52.20
2022-10-12T21:18:22.465Z,52.10
2022-10-12T21:21:31.782Z,52.20
2022-10-12T21:24:39.780Z,52.00
2022-10-12T21:27:47.745Z,52.00
2022-10-12T21:30:55.892Z,51.90
2022-10-12T21:34:05.500Z,51.90
2022-10-12T21:37:14.692Z,51.90
2022-10-12T21:40:23.158Z,51.90
2022-10-12T21:43:31.304Z,51.80
2022-10-12T21:46:39.443Z,51.80
2022-10-12T21:49:47.192Z,51.80
2022-10-12T21:53:00.215Z,51.70
2022-10-12T21:56:08.858Z,51.80
2022-10-12T21:59:16.862Z,51.70
2022-10-12T22:02:25.108Z,51.70
2022-10-12T22:05:33.027Z,51.70
2022-10-12T22:08:42.553Z,51.70
2022-10-12T22:11:54.978Z,51.70
2022-10-12T22:15:02.843Z,51.60
2022-10-12T22:18:10.871Z,51.70
2022-10-12T22:21:19.420Z,51.60
2022-10-12T22:24:28.434Z,51.60
2022-10-12T22:27:36.509Z,51.60
2022-10-12T22:30:44.452Z,51.50
2022-10-12T22:33:52.570Z,51.50
2022-10-12T22:37:00.542Z,51.50
2022-10-12T22:40:11.720Z,51.50
2022-10-12T22:43:19.633Z,51.50
2022-10-12T22:46:27.797Z,51.50
2022-10-12T22:49:35.921Z,51.50
2022-10-12T22:52:44.089Z,51.50
2022-10-12T22:55:56.583Z,52.10
2022-10-12T22:59:06.873Z,51.50
2022-10-12T23:02:14.594Z,51.50
2022-10-12T23:05:22.649Z,51.50
2022-10-12T23:08:30.649Z,51.50
2022-10-12T23:11:44.244Z,51.50
2022-10-12T23:14:52.207Z,51.60
2022-10-12T23:18:00.337Z,51.60
2022-10-12T23:21:09.258Z,51.60
2022-10-12T23:24:16.985Z,51.60
2022-10-12T23:27:26.483Z,52.20
2022-10-12T23:30:34.521Z,51.70
2022-10-12T23:33:42.563Z,51.70
2022-10-12T23:36:50.566Z,51.60
2022-10-12T23:39:58.637Z,51.70
2022-10-12T23:43:07.974Z,51.70
2022-10-12T23:46:15.987Z,51.70
2022-10-12T23:49:24.061Z,51.70
2022-10-12T23:52:35.302Z,51.70
2022-10-12T23:55:43.255Z,51.70
2022-10-12T23:58:52.826Z,51.80
